Time;durP1;ratioP1;P1;durP2;ratioP2;P2;SDS_P1;SDS_P2;PMS_P1;PMS_P2;Temp;Humidity;BMP_temperature;BMP_pressure;BME280_temperature;BME280_humidity;BME280_pressure;Samples;Min_cycle;Max_cycle;Signal;HPM_P1;HPM_P2
2021/06/05 00:00:08;;;;;;;1.60;1.50;;;18.80;99.90;;;;;;4968362;28;20212;-67
2021/06/05 00:02:34;;;;;;;4.28;1.63;;;18.90;99.90;;;;;;4970369;28;20206;-67
2021/06/05 00:05:01;;;;;;;1.63;1.52;;;18.90;99.90;;;;;;4970756;28;20264;-67
2021/06/05 00:07:29;;;;;;;1.92;1.63;;;18.80;99.90;;;;;;4970684;28;20230;-67
2021/06/05 00:09:56;;;;;;;1.75;1.45;;;18.80;99.90;;;;;;4969909;28;20212;-67
2021/06/05 00:12:26;;;;;;;2.53;1.73;;;18.70;99.90;;;;;;4970212;28;20236;-66
2021/06/05 00:14:53;;;;;;;1.40;1.30;;;18.70;99.90;;;;;;4969497;28;20275;-67
2021/06/05 00:17:20;;;;;;;1.80;1.70;;;18.70;99.90;;;;;;4969458;28;20200;-67
2021/06/05 00:19:47;;;;;;;1.70;1.60;;;18.70;99.90;;;;;;4970153;28;20581;-67
2021/06/05 00:22:14;;;;;;;4.22;1.55;;;18.70;99.90;;;;;;4970519;28;20208;-67
2021/06/05 00:24:43;;;;;;;3.13;1.55;;;18.60;99.90;;;;;;4970349;28;20303;-67
2021/06/05 00:27:10;;;;;;;1.90;1.70;;;18.60;99.90;;;;;;4970149;28;20207;-67
2021/06/05 00:29:36;;;;;;;2.25;1.30;;;18.60;99.90;;;;;;4969547;28;20200;-67
2021/06/05 00:32:04;;;;;;;3.72;1.45;;;18.60;99.90;;;;;;4969169;28;20305;-67
2021/06/05 00:34:32;;;;;;;2.90;1.50;;;18.60;99.90;;;;;;4962144;28;20273;-67
2021/06/05 00:36:58;;;;;;;4.35;1.50;;;18.60;99.90;;;;;;4973717;28;20215;-67
2021/06/05 00:39:25;;;;;;;1.25;1.20;;;18.50;99.90;;;;;;4972803;28;20464;-67
2021/06/05 00:41:53;;;;;;;1.67;1.48;;;18.40;99.90;;;;;;4974445;28;20670;-67
2021/06/05 00:44:20;;;;;;;1.55;1.42;;;18.40;99.90;;;;;;4973523;28;20299;-67
2021/06/05 00:46:46;;;;;;;4.00;1.75;;;18.40;99.90;;;;;;4972756;28;20731;-66
2021/06/05 00:49:13;;;;;;;2.88;1.50;;;18.30;99.90;;;;;;4972424;28;20290;-67
2021/06/05 00:51:44;;;;;;;4.50;2.30;;;18.30;99.90;;;;;;4972585;28;20258;-67
2021/06/05 00:54:12;;;;;;;1.83;1.73;;;18.30;99.90;;;;;;4972750;28;20682;-67
2021/06/05 00:56:40;;;;;;;5.73;2.37;;;18.20;99.90;;;;;;4972727;28;20250;-67
2021/06/05 00:59:10;;;;;;;3.42;1.90;;;18.20;99.90;;;;;;4973721;28;20250;-67
2021/06/05 01:01:38;;;;;;;1.90;1.80;;;18.20;99.90;;;;;;4973024;28;20207;-67
2021/06/05 01:04:05;;;;;;;1.90;1.77;;;18.20;99.90;;;;;;4973799;28;20222;-67
2021/06/05 01:06:38;;;;;;;1.30;1.25;;;18.20;99.90;;;;;;4973556;28;20200;-67
2021/06/05 01:09:09;;;;;;;2.22;1.50;;;18.10;99.90;;;;;;4966066;28;20218;-67
2021/06/05 01:11:48;;;;;;;1.60;1.50;;;18.10;99.90;;;;;;4971821;28;20329;-67
2021/06/05 01:14:25;;;;;;;1.48;1.38;;;18.10;99.90;;;;;;4966538;28;20227;-67
2021/06/05 01:16:57;;;;;;;2.47;1.40;;;18.00;99.90;;;;;;4969255;28;20219;-68
2021/06/05 01:19:46;;;;;;;4.10;1.52;;;18.00;99.90;;;;;;4988688;28;20590;-67
2021/06/05 01:22:38;;;;;;;2.15;1.10;;;18.00;99.90;;;;;;4965191;28;20535;-68
2021/06/05 01:25:27;;;;;;;1.23;1.13;;;18.00;99.90;;;;;;4971970;28;20268;-66
2021/06/05 01:28:02;;;;;;;1.25;1.20;;;17.90;99.90;;;;;;4973476;28;20201;-67
2021/06/05 01:30:33;;;;;;;1.67;1.40;;;17.90;99.90;;;;;;4970382;28;20220;-66
2021/06/05 01:33:02;;;;;;;2.58;1.77;;;17.90;99.90;;;;;;4972956;28;20223;-67
2021/06/05 01:35:31;;;;;;;3.20;1.67;;;17.90;99.90;;;;;;4971677;28;20211;-68
2021/06/05 01:38:02;;;;;;;2.15;1.95;;;17.80;99.90;;;;;;4971891;28;20202;-66
2021/06/05 01:40:30;;;;;;;2.07;1.90;;;17.80;99.90;;;;;;4972754;28;20686;-67
2021/06/05 01:43:01;;;;;;;2.00;1.75;;;17.70;99.90;;;;;;4971794;28;20562;-67
2021/06/05 01:45:35;;;;;;;1.63;1.52;;;17.70;99.90;;;;;;4969869;28;20232;-67
2021/06/05 01:48:04;;;;;;;2.10;2.00;;;17.70;99.90;;;;;;4967217;28;20225;-67
2021/06/05 01:50:37;;;;;;;3.33;1.80;;;17.70;99.90;;;;;;4970995;28;20212;-67
2021/06/05 01:53:13;;;;;;;2.73;1.80;;;17.70;99.90;;;;;;4971557;28;20232;-68
2021/06/05 01:55:44;;;;;;;1.75;1.58;;;17.70;99.90;;;;;;4971275;28;20281;-67
2021/06/05 01:58:16;;;;;;;1.73;1.60;;;17.50;99.90;;;;;;4971844;28;20272;-67
2021/06/05 02:00:58;;;;;;;1.93;1.73;;;17.70;99.90;;;;;;4964989;28;20284;-67
2021/06/05 02:03:30;;;;;;;1.95;1.50;;;17.70;99.90;;;;;;4972903;28;20650;-67
2021/06/05 02:06:16;;;;;;;5.40;2.30;;;17.70;99.90;;;;;;4971424;28;20212;-67
2021/06/05 02:08:43;;;;;;;6.17;2.40;;;17.60;99.90;;;;;;4972683;28;20202;-67
2021/06/05 02:11:14;;;;;;;4.30;2.53;;;17.60;99.90;;;;;;4972154;28;20337;-67
2021/06/05 02:13:49;;;;;;;5.53;2.47;;;17.60;99.90;;;;;;4971482;28;20225;-67
2021/06/05 02:16:24;;;;;;;6.70;2.40;;;17.50;99.90;;;;;;4968997;28;20683;-67
2021/06/05 02:18:55;;;;;;;4.90;2.00;;;17.50;99.90;;;;;;4972832;28;20233;-67
2021/06/05 02:21:33;;;;;;;6.33;2.73;;;17.50;99.90;;;;;;4970925;28;20202;-67
2021/06/05 02:24:05;;;;;;;4.57;2.60;;;17.40;99.90;;;;;;4971208;28;20217;-67
2021/06/05 02:26:36;;;;;;;7.97;3.43;;;17.40;99.90;;;;;;4972061;28;20664;-67
2021/06/05 02:29:08;;;;;;;8.77;3.43;;;17.40;99.90;;;;;;4972153;28;20197;-67
2021/06/05 02:31:38;;;;;;;5.17;3.13;;;17.30;99.90;;;;;;4970166;28;20213;-67
2021/06/05 02:34:13;;;;;;;6.17;3.07;;;17.30;99.90;;;;;;4970747;28;20637;-67
2021/06/05 02:36:42;;;;;;;2.80;2.43;;;17.30;99.90;;;;;;4970376;28;20296;-67
2021/06/05 02:39:11;;;;;;;3.43;2.90;;;17.30;99.90;;;;;;4970528;28;20296;-67
2021/06/05 02:41:42;;;;;;;3.33;2.87;;;17.30;99.90;;;;;;4970460;28;20263;-67
2021/06/05 02:44:13;;;;;;;4.47;2.67;;;17.30;99.90;;;;;;4971370;28;20767;-67
2021/06/05 02:46:41;;;;;;;4.37;3.00;;;17.30;99.90;;;;;;4969143;28;20209;-67
2021/06/05 02:49:24;;;;;;;2.70;2.50;;;17.30;99.90;;;;;;4971533;28;20328;-67
2021/06/05 02:51:54;;;;;;;4.80;3.13;;;17.20;99.90;;;;;;4971733;28;20206;-67
2021/06/05 02:54:26;;;;;;;6.93;2.70;;;17.20;99.90;;;;;;4961976;28;20606;-67
2021/06/05 02:56:54;;;;;;;2.37;2.20;;;17.20;99.90;;;;;;4971656;28;20292;-67
2021/06/05 02:59:23;;;;;;;2.47;2.23;;;17.20;99.90;;;;;;4969722;28;20210;-67
2021/06/05 03:01:53;;;;;;;2.70;2.60;;;17.20;99.90;;;;;;4969449;28;20202;-67
2021/06/05 03:04:22;;;;;;;2.43;2.23;;;17.20;99.90;;;;;;4970412;28;20211;-67
2021/06/05 03:06:49;;;;;;;2.80;2.60;;;17.30;99.90;;;;;;4971352;28;20305;-67
2021/06/05 03:09:19;;;;;;;3.73;2.40;;;17.30;99.90;;;;;;4970429;28;20232;-67
2021/06/05 03:11:49;;;;;;;2.30;2.03;;;17.20;99.90;;;;;;4971095;28;20224;-67
2021/06/05 03:14:16;;;;;;;2.63;2.43;;;17.30;99.90;;;;;;4964175;28;20248;-67
2021/06/05 03:16:47;;;;;;;3.23;2.50;;;17.20;99.90;;;;;;4966853;28;20288;-68
2021/06/05 03:19:14;;;;;;;2.70;2.50;;;17.30;99.90;;;;;;4970107;28;20259;-67
2021/06/05 03:21:43;;;;;;;2.67;2.50;;;17.20;99.90;;;;;;4969319;28;20196;-67
2021/06/05 03:24:20;;;;;;;2.03;1.93;;;17.30;99.90;;;;;;4970044;28;20213;-66
2021/06/05 03:26:48;;;;;;;3.53;2.30;;;17.30;99.90;;;;;;4969577;28;20355;-66
2021/06/05 03:29:15;;;;;;;3.77;2.40;;;17.30;99.90;;;;;;4969322;28;20251;-66
2021/06/05 03:31:54;;;;;;;2.10;2.00;;;17.20;99.90;;;;;;4969637;28;20196;-66
2021/06/05 03:34:22;;;;;;;2.00;1.90;;;17.30;99.90;;;;;;4969425;28;20605;-66
2021/06/05 03:36:49;;;;;;;1.87;1.77;;;17.30;99.90;;;;;;4970759;28;20252;-67
2021/06/05 03:39:20;;;;;;;1.83;1.73;;;17.40;99.90;;;;;;4969474;28;20222;-66
2021/06/05 03:41:47;;;;;;;4.33;2.20;;;17.40;99.90;;;;;;4969386;28;20221;-66
2021/06/05 03:44:17;;;;;;;2.43;2.23;;;17.40;99.90;;;;;;4968917;28;20840;-67
2021/06/05 03:46:44;;;;;;;2.83;2.63;;;17.40;99.90;;;;;;4969333;28;20207;-67
2021/06/05 03:49:13;;;;;;;2.90;2.70;;;17.40;99.90;;;;;;4970547;28;20193;-66
2021/06/05 03:51:40;;;;;;;3.67;2.90;;;17.40;99.90;;;;;;4970309;28;20206;-66
2021/06/05 03:54:09;;;;;;;3.03;2.73;;;17.40;99.90;;;;;;4969123;28;20213;-67
2021/06/05 03:56:36;;;;;;;3.47;2.50;;;17.50;99.90;;;;;;4969291;28;20212;-67
2021/06/05 03:59:04;;;;;;;5.83;2.50;;;17.50;99.90;;;;;;4970705;28;20787;-67
2021/06/05 04:01:31;;;;;;;6.63;2.83;;;17.50;99.90;;;;;;4969054;28;20296;-67
2021/06/05 04:03:58;;;;;;;4.93;3.50;;;17.50;99.90;;;;;;4971133;28;20216;-67
2021/06/05 04:06:28;;;;;;;3.83;2.40;;;17.60;99.90;;;;;;4971120;28;20292;-67
2021/06/05 04:08:56;;;;;;;2.20;2.03;;;17.60;99.90;;;;;;4971196;28;20327;-67
2021/06/05 04:11:23;;;;;;;2.20;1.97;;;17.70;99.90;;;;;;4969326;28;20244;-66
2021/06/05 04:13:49;;;;;;;3.07;2.87;;;17.70;99.90;;;;;;4969951;28;20745;-67
2021/06/05 04:16:18;;;;;;;2.97;2.67;;;17.80;99.90;;;;;;4969941;28;20273;-67
2021/06/05 04:18:45;;;;;;;2.57;2.37;;;17.80;99.90;;;;;;4970873;28;20288;-67
2021/06/05 04:21:14;;;;;;;4.07;2.43;;;17.80;99.90;;;;;;4969905;28;20281;-66
2021/06/05 04:23:43;;;;;;;3.03;2.20;;;17.80;99.90;;;;;;4970388;28;20229;-67
2021/06/05 04:26:10;;;;;;;2.07;1.97;;;17.90;99.90;;;;;;4969020;28;20647;-67
2021/06/05 04:28:37;;;;;;;2.80;2.60;;;17.90;99.90;;;;;;4970519;28;20242;-66
2021/06/05 04:31:05;;;;;;;2.80;2.60;;;18.00;99.90;;;;;;4968166;28;20206;-66
2021/06/05 04:33:32;;;;;;;4.65;3.00;;;18.00;99.90;;;;;;4966176;28;20214;-67
2021/06/05 04:36:01;;;;;;;2.50;2.40;;;18.10;99.90;;;;;;4965434;28;20204;-67
2021/06/05 04:38:28;;;;;;;2.60;2.40;;;18.10;99.90;;;;;;4970281;28;20207;-67
2021/06/05 04:40:56;;;;;;;2.50;2.30;;;18.20;99.90;;;;;;4968429;28;20222;-67
2021/06/05 04:43:23;;;;;;;2.57;2.37;;;18.20;99.90;;;;;;4970568;28;20670;-67
2021/06/05 04:45:50;;;;;;;3.13;2.80;;;18.30;99.90;;;;;;4966605;28;20247;-67
2021/06/05 04:48:17;;;;;;;2.90;2.60;;;18.30;99.90;;;;;;4969168;28;20290;-67
2021/06/05 04:50:44;;;;;;;4.35;2.42;;;18.50;99.90;;;;;;4969386;28;20204;-67
2021/06/05 04:53:11;;;;;;;2.80;2.60;;;18.50;99.90;;;;;;4969883;28;20221;-67
2021/06/05 04:55:39;;;;;;;2.67;2.50;;;18.50;99.90;;;;;;4968316;28;20211;-68
2021/06/05 04:58:07;;;;;;;4.95;3.42;;;18.60;99.90;;;;;;4970420;28;20203;-67
2021/06/05 05:00:36;;;;;;;10.38;3.38;;;18.70;99.90;;;;;;4968046;28;20203;-67
2021/06/05 05:03:04;;;;;;;3.03;2.72;;;18.80;99.90;;;;;;4970648;28;20624;-66
2021/06/05 05:05:31;;;;;;;2.90;2.70;;;18.90;99.90;;;;;;4969881;28;20222;-66
2021/06/05 05:07:58;;;;;;;2.50;2.25;;;19.00;99.90;;;;;;4970559;28;20229;-67
2021/06/05 05:10:27;;;;;;;2.42;2.22;;;19.20;99.90;;;;;;4969497;28;20267;-67
2021/06/05 05:12:54;;;;;;;2.55;2.30;;;19.30;99.90;;;;;;4970478;28;20226;-67
2021/06/05 05:15:23;;;;;;;3.23;2.50;;;19.50;99.90;;;;;;4963123;28;20303;-67
2021/06/05 05:17:49;;;;;;;3.35;3.03;;;19.60;99.90;;;;;;4970082;28;20292;-66
2021/06/05 05:20:20;;;;;;;2.95;2.55;;;19.70;99.90;;;;;;4967533;28;20275;-66
2021/06/05 05:22:46;;;;;;;2.60;2.40;;;19.70;99.90;;;;;;4971917;28;20204;-67
2021/06/05 05:25:14;;;;;;;4.13;2.95;;;19.80;99.90;;;;;;4973646;28;20276;-68
2021/06/05 05:27:40;;;;;;;7.07;3.17;;;19.80;99.90;;;;;;4973624;28;20205;-68
2021/06/05 05:30:10;;;;;;;8.38;3.78;;;19.80;99.90;;;;;;4972259;28;20208;-67
2021/06/05 05:32:38;;;;;;;6.00;3.80;;;19.90;99.90;;;;;;4966774;28;20303;-67
2021/06/05 05:35:06;;;;;;;3.47;3.17;;;19.90;99.90;;;;;;4972740;28;20197;-67
2021/06/05 05:37:33;;;;;;;5.53;3.40;;;20.00;99.90;;;;;;4973228;28;20196;-66
2021/06/05 05:39:59;;;;;;;6.35;2.75;;;20.10;99.90;;;;;;4972900;28;20200;-67
2021/06/05 05:42:26;;;;;;;5.68;2.92;;;20.10;99.90;;;;;;4973130;28;20255;-68
2021/06/05 05:44:52;;;;;;;5.18;3.45;;;20.20;99.90;;;;;;4970745;28;20304;-67
2021/06/05 05:47:19;;;;;;;3.38;3.03;;;20.30;99.90;;;;;;4972450;28;20192;-67
2021/06/05 05:49:47;;;;;;;5.93;2.72;;;20.30;99.90;;;;;;4972699;28;20516;-67
2021/06/05 05:52:13;;;;;;;3.55;3.20;;;20.40;99.90;;;;;;4972662;28;20235;-68
2021/06/05 05:54:40;;;;;;;4.00;2.60;;;20.60;99.90;;;;;;4972582;28;20688;-67
2021/06/05 05:57:08;;;;;;;3.75;2.90;;;20.60;99.90;;;;;;4973033;28;20200;-67
2021/06/05 05:59:34;;;;;;;4.22;3.10;;;20.70;99.90;;;;;;4972125;28;20192;-67
2021/06/05 06:02:00;;;;;;;4.28;3.40;;;20.90;99.90;;;;;;4971355;28;20306;-67
2021/06/05 06:04:27;;;;;;;3.47;3.17;;;21.00;99.90;;;;;;4973150;28;20280;-67
2021/06/05 06:06:55;;;;;;;3.35;3.05;;;21.10;99.90;;;;;;4972549;28;20232;-67
2021/06/05 06:09:21;;;;;;;3.03;2.83;;;21.20;99.90;;;;;;4973137;28;20559;-67
2021/06/05 06:11:48;;;;;;;3.30;3.00;;;22.10;99.90;;;;;;4967306;28;20236;-67
2021/06/05 06:14:15;;;;;;;8.02;3.00;;;23.70;99.90;;;;;;4963094;28;20220;-67
2021/06/05 06:16:42;;;;;;;5.50;3.67;;;25.20;99.90;;;;;;4970819;28;20617;-67
2021/06/05 06:19:12;;;;;;;3.28;2.65;;;26.30;99.90;;;;;;4972899;28;20291;-68
2021/06/05 06:21:40;;;;;;;6.30;2.83;;;27.30;98.90;;;;;;4970558;28;20288;-68
2021/06/05 06:24:08;;;;;;;2.88;2.63;;;28.50;94.60;;;;;;4972334;28;20299;-68
2021/06/05 06:26:35;;;;;;;2.72;2.53;;;29.70;92.20;;;;;;4972199;28;20219;-68
2021/06/05 06:29:09;;;;;;;5.43;3.10;;;31.00;83.10;;;;;;4972264;28;20193;-68
2021/06/05 06:31:36;;;;;;;2.83;2.63;;;31.90;73.40;;;;;;4969289;28;20295;-68
2021/06/05 06:34:02;;;;;;;2.97;2.72;;;32.20;68.90;;;;;;4965635;28;20283;-68
2021/06/05 06:36:29;;;;;;;2.70;2.50;;;32.90;66.20;;;;;;4971635;28;20274;-68
2021/06/05 06:38:55;;;;;;;2.53;2.33;;;34.40;60.60;;;;;;4972214;28;20286;-68
2021/06/05 06:41:27;;;;;;;2.20;2.00;;;36.20;57.20;;;;;;4971456;28;20206;-67
2021/06/05 06:43:54;;;;;;;2.40;2.20;;;38.20;53.80;;;;;;4972116;28;20218;-67
2021/06/05 06:46:23;;;;;;;2.80;2.60;;;40.00;48.50;;;;;;4969964;28;20280;-67
2021/06/05 06:48:50;;;;;;;2.60;2.40;;;41.00;44.20;;;;;;4971828;28;20197;-67
2021/06/05 06:51:17;;;;;;;2.72;2.53;;;42.00;41.60;;;;;;4971532;28;20381;-67
2021/06/05 06:53:44;;;;;;;2.72;2.53;;;43.20;39.60;;;;;;4971192;28;20766;-67
2021/06/05 06:56:11;;;;;;;2.78;2.60;;;44.20;38.10;;;;;;4970815;28;20283;-67
2021/06/05 06:58:39;;;;;;;3.40;3.10;;;45.40;36.30;;;;;;4971678;28;20251;-67
2021/06/05 07:01:07;;;;;;;4.88;3.00;;;46.20;34.00;;;;;;4970258;28;20254;-68
2021/06/05 07:03:34;;;;;;;3.13;2.83;;;47.00;32.90;;;;;;4971779;28;20279;-68
2021/06/05 07:06:01;;;;;;;3.20;2.90;;;47.80;31.80;;;;;;4971187;28;20311;-67
2021/06/05 07:08:30;;;;;;;3.17;2.88;;;48.60;30.60;;;;;;4971853;28;20210;-67
2021/06/05 07:11:00;;;;;;;4.15;3.25;;;49.20;29.10;;;;;;4970873;28;20290;-67
2021/06/05 07:13:28;;;;;;;4.50;3.05;;;49.20;28.10;;;;;;4970125;28;20216;-67
2021/06/05 07:15:57;;;;;;;6.03;2.80;;;49.00;27.80;;;;;;4961277;28;20709;-67
2021/06/05 07:18:25;;;;;;;5.78;3.00;;;48.20;27.30;;;;;;4972052;28;20726;-68
2021/06/05 07:20:52;;;;;;;3.70;3.40;;;46.50;28.10;;;;;;4971148;28;20235;-67
2021/06/05 07:23:21;;;;;;;3.15;2.88;;;44.10;28.60;;;;;;4969285;28;20674;-67
2021/06/05 07:25:48;;;;;;;3.05;2.85;;;41.60;30.10;;;;;;4969251;28;20314;-68
2021/06/05 07:28:19;;;;;;;3.85;2.83;;;39.50;32.20;;;;;;4971291;28;20207;-68
2021/06/05 07:30:47;;;;;;;8.07;2.88;;;37.90;33.90;;;;;;4969302;28;20285;-68
2021/06/05 07:33:15;;;;;;;3.17;2.75;;;36.50;35.20;;;;;;4970814;28;20578;-68
2021/06/05 07:35:42;;;;;;;5.38;2.85;;;35.40;37.30;;;;;;4968938;28;20204;-67
2021/06/05 07:38:10;;;;;;;3.88;2.50;;;34.50;37.50;;;;;;4967380;28;20227;-67
2021/06/05 07:40:37;;;;;;;4.75;2.65;;;33.70;38.40;;;;;;4970235;28;20192;-67
2021/06/05 07:43:04;;;;;;;4.03;2.55;;;33.00;39.40;;;;;;4971069;28;20189;-67
2021/06/05 07:45:31;;;;;;;3.55;2.80;;;32.30;41.00;;;;;;4963379;28;20195;-67
2021/06/05 07:47:57;;;;;;;2.95;2.55;;;31.70;41.00;;;;;;4970925;28;20316;-67
2021/06/05 07:50:26;;;;;;;3.08;2.45;;;31.10;41.70;;;;;;4970482;28;20197;-67
2021/06/05 07:52:53;;;;;;;2.97;2.75;;;30.70;42.70;;;;;;4970366;28;20275;-67
2021/06/05 07:55:20;;;;;;;2.75;2.05;;;30.30;43.20;;;;;;4968770;28;20749;-67
2021/06/05 07:57:46;;;;;;;2.80;2.60;;;30.00;43.90;;;;;;4970614;28;20291;-67
2021/06/05 08:00:17;;;;;;;2.80;2.35;;;29.90;44.80;;;;;;4969839;28;20204;-67
2021/06/05 08:02:44;;;;;;;2.72;2.47;;;29.70;44.80;;;;;;4970372;28;20691;-67
2021/06/05 08:05:12;;;;;;;2.97;1.90;;;29.50;45.10;;;;;;4970285;28;20211;-67
2021/06/05 08:07:40;;;;;;;3.88;2.50;;;29.50;45.70;;;;;;4971018;28;20283;-67
2021/06/05 08:10:09;;;;;;;2.30;2.20;;;29.40;45.90;;;;;;4970055;28;20754;-69
2021/06/05 08:12:36;;;;;;;4.10;2.55;;;29.30;45.90;;;;;;4970682;28;20263;-68
2021/06/05 08:15:04;;;;;;;2.58;2.38;;;29.10;46.40;;;;;;4969427;28;20303;-67
2021/06/05 08:17:30;;;;;;;2.72;2.53;;;28.90;47.20;;;;;;4969855;28;20816;-67
2021/06/05 08:19:57;;;;;;;3.05;2.67;;;28.80;47.70;;;;;;4970518;28;20203;-67
2021/06/05 08:22:26;;;;;;;2.60;2.47;;;28.60;48.00;;;;;;4970798;28;20220;-67
2021/06/05 08:24:54;;;;;;;2.72;2.58;;;28.60;48.30;;;;;;4970138;28;20205;-68
2021/06/05 08:27:21;;;;;;;2.55;2.17;;;28.40;48.50;;;;;;4970653;28;20208;-68
2021/06/05 08:29:48;;;;;;;2.92;2.72;;;28.40;48.80;;;;;;4969648;28;20238;-68
2021/06/05 08:32:14;;;;;;;2.88;2.33;;;28.30;49.10;;;;;;4969575;28;20262;-67
2021/06/05 08:34:41;;;;;;;4.00;2.67;;;28.30;49.40;;;;;;4969801;28;20247;-67
2021/06/05 08:37:07;;;;;;;2.55;2.35;;;28.10;49.20;;;;;;4970339;28;20204;-67
2021/06/05 08:39:34;;;;;;;3.38;2.55;;;28.00;50.30;;;;;;4970146;28;20231;-66
2021/06/05 08:42:03;;;;;;;3.45;2.40;;;27.80;50.00;;;;;;4970371;28;20716;-67
2021/06/05 08:44:35;;;;;;;3.10;2.63;;;27.70;50.50;;;;;;4969004;28;20232;-67
2021/06/05 08:47:06;;;;;;;4.93;2.88;;;27.70;50.90;;;;;;4968854;28;20201;-67
2021/06/05 08:49:36;;;;;;;3.78;2.58;;;27.70;51.00;;;;;;4966514;28;20287;-67
2021/06/05 08:52:06;;;;;;;2.47;2.33;;;27.60;51.10;;;;;;4970091;28;20204;-66
2021/06/05 08:54:46;;;;;;;3.67;2.90;;;27.60;51.50;;;;;;4969493;28;20232;-67
2021/06/05 08:57:22;;;;;;;2.67;2.33;;;27.60;51.70;;;;;;4972445;28;20327;-67
2021/06/05 08:59:49;;;;;;;3.40;2.67;;;27.60;52.20;;;;;;4972911;28;20655;-67
2021/06/05 09:02:17;;;;;;;2.33;2.13;;;27.60;52.40;;;;;;4972884;28;20207;-68
2021/06/05 09:04:43;;;;;;;6.78;2.33;;;27.60;52.40;;;;;;4973280;28;20232;-68
2021/06/05 09:07:14;;;;;;;4.38;2.38;;;27.60;52.20;;;;;;4973753;28;20287;-67
2021/06/05 09:09:44;;;;;;;3.30;3.00;;;27.50;52.90;;;;;;4973314;28;20674;-67
2021/06/05 09:12:11;;;;;;;2.80;2.60;;;27.40;52.90;;;;;;4973038;28;20260;-67
2021/06/05 09:14:40;;;;;;;5.75;2.50;;;27.30;53.00;;;;;;4971897;28;20303;-67
2021/06/05 09:17:16;;;;;;;7.22;2.35;;;27.30;53.50;;;;;;4972014;28;20295;-67
2021/06/05 09:20:00;;;;;;;2.20;2.10;;;27.30;53.80;;;;;;4973494;28;20204;-67
2021/06/05 09:22:31;;;;;;;5.07;2.50;;;27.40;54.00;;;;;;4973785;28;20208;-67
2021/06/05 09:24:58;;;;;;;4.63;2.95;;;27.60;54.70;;;;;;4973234;28;20295;-67
2021/06/05 09:27:26;;;;;;;10.65;2.17;;;27.50;53.70;;;;;;4973738;28;20196;-68
2021/06/05 09:30:02;;;;;;;2.20;2.10;;;27.40;54.00;;;;;;4972567;28;20196;-68
2021/06/05 09:32:30;;;;;;;2.75;2.17;;;27.40;54.20;;;;;;4972641;28;20236;-67
2021/06/05 09:35:15;;;;;;;5.43;2.20;;;27.40;54.40;;;;;;4973167;28;20594;-67
2021/06/05 09:37:44;;;;;;;2.60;2.20;;;27.50;53.90;;;;;;4973377;28;20278;-68
2021/06/05 09:40:23;;;;;;;6.65;2.08;;;27.50;53.50;;;;;;4971798;28;20219;-67
2021/06/05 09:42:53;;;;;;;3.67;2.63;;;27.30;52.70;;;;;;4973029;28;20189;-67
2021/06/05 09:45:31;;;;;;;5.03;2.10;;;27.30;53.00;;;;;;4971654;28;20655;-68
2021/06/05 09:48:14;;;;;;;4.50;2.00;;;27.30;53.10;;;;;;4967122;28;20196;-67
2021/06/05 09:50:43;;;;;;;2.08;1.88;;;27.40;52.20;;;;;;4972726;28;20196;-67
2021/06/05 09:53:14;;;;;;;4.03;2.00;;;27.50;52.00;;;;;;4973128;28;20221;-68
2021/06/05 09:55:41;;;;;;;2.67;2.03;;;27.60;51.60;;;;;;4971887;28;20307;-68
2021/06/05 09:58:12;;;;;;;2.40;2.00;;;27.60;51.50;;;;;;4972299;28;20212;-67
2021/06/05 10:00:41;;;;;;;2.60;2.20;;;27.50;50.90;;;;;;4970967;28;20280;-68
2021/06/05 10:03:29;;;;;;;2.50;2.30;;;27.50;51.40;;;;;;4970280;28;20305;-68
2021/06/05 10:05:56;;;;;;;2.03;1.83;;;27.60;51.30;;;;;;4963323;28;20197;-67
2021/06/05 10:08:33;;;;;;;3.28;2.10;;;27.70;51.00;;;;;;4971884;28;20247;-67
2021/06/05 10:11:08;;;;;;;3.10;2.40;;;27.70;50.20;;;;;;4971704;28;20279;-68
2021/06/05 10:13:40;;;;;;;3.08;2.00;;;27.60;49.70;;;;;;4972281;28;20219;-68
2021/06/05 10:16:11;;;;;;;2.33;2.22;;;27.70;49.40;;;;;;4970535;28;20200;-68
2021/06/05 10:18:43;;;;;;;2.22;2.03;;;27.70;48.90;;;;;;4972286;28;20200;-67
2021/06/05 10:21:18;;;;;;;2.30;2.10;;;27.80;49.20;;;;;;4972363;28;20197;-67
2021/06/05 10:23:48;;;;;;;5.32;2.50;;;27.90;48.50;;;;;;4972302;28;20201;-66
2021/06/05 10:26:22;;;;;;;2.15;2.03;;;28.00;47.70;;;;;;4971707;28;20804;-68
2021/06/05 10:28:53;;;;;;;1.90;1.80;;;28.10;47.00;;;;;;4971852;28;20199;-68
2021/06/05 10:31:23;;;;;;;2.00;1.80;;;28.10;46.10;;;;;;4970505;28;20297;-67
2021/06/05 10:33:52;;;;;;;1.85;1.70;;;28.00;44.70;;;;;;4971149;28;20228;-67
2021/06/05 10:36:24;;;;;;;1.83;1.73;;;28.00;45.10;;;;;;4971636;28;20565;-68
2021/06/05 10:38:53;;;;;;;2.35;2.25;;;28.10;44.80;;;;;;4965053;28;20232;-68
2021/06/05 10:41:23;;;;;;;2.17;1.60;;;28.30;44.70;;;;;;4971940;28;20224;-67
2021/06/05 10:43:50;;;;;;;1.77;1.67;;;28.20;43.20;;;;;;4971664;28;20205;-68
2021/06/05 10:46:29;;;;;;;2.10;1.92;;;28.20;42.50;;;;;;4968970;28;20560;-67
2021/06/05 10:49:07;;;;;;;1.85;1.70;;;28.10;42.30;;;;;;4967772;28;20208;-68
2021/06/05 10:51:35;;;;;;;2.72;2.10;;;28.20;42.30;;;;;;4972209;28;20200;-68
2021/06/05 10:54:05;;;;;;;1.90;1.80;;;28.20;42.00;;;;;;4972209;28;20224;-67
2021/06/05 10:56:35;;;;;;;5.45;1.85;;;28.20;41.80;;;;;;4971707;28;20192;-68
2021/06/05 10:59:04;;;;;;;8.38;1.92;;;28.20;41.60;;;;;;4971165;28;20196;-67
2021/06/05 11:01:50;;;;;;;2.88;1.83;;;28.30;41.50;;;;;;4970120;28;20255;-67
2021/06/05 11:04:43;;;;;;;1.90;1.80;;;28.20;41.00;;;;;;4962748;28;20331;-67
2021/06/05 11:07:23;;;;;;;4.80;2.10;;;28.20;41.50;;;;;;4965310;28;20744;-66
2021/06/05 11:09:52;;;;;;;1.90;1.80;;;28.10;42.40;;;;;;4966484;28;20228;-67
2021/06/05 11:12:51;;;;;;;2.47;1.95;;;28.10;42.70;;;;;;4971118;28;20233;-68
2021/06/05 11:15:54;;;;;;;2.83;2.20;;;28.00;42.80;;;;;;4961023;28;20197;-67
2021/06/05 11:18:26;;;;;;;1.90;1.80;;;28.00;42.80;;;;;;4911691;29;20266;-67
2021/06/05 11:20:52;;;;;;;2.78;1.90;;;27.90;43.40;;;;;;4894136;29;20573;-67
2021/06/05 11:23:22;;;;;;;5.97;2.17;;;27.70;43.80;;;;;;4911300;29;20274;-67
2021/06/05 11:25:51;;;;;;;2.05;1.85;;;27.70;43.20;;;;;;4895167;29;20608;-67
2021/06/05 11:28:46;;;;;;;2.58;2.03;;;27.70;43.00;;;;;;4911790;29;20218;-67
2021/06/05 11:31:38;;;;;;;1.50;1.50;;;27.80;43.40;;;;;;4909869;29;20316;-68
2021/06/05 11:34:07;;;;;;;7.25;1.75;;;27.80;43.40;;;;;;4911054;29;20426;-68
2021/06/05 11:36:44;;;;;;;3.88;1.98;;;28.10;43.00;;;;;;4909369;29;20214;-68
2021/06/05 11:39:46;;;;;;;2.00;1.88;;;28.20;41.80;;;;;;4911325;29;20226;-68
2021/06/05 11:42:46;;;;;;;2.70;1.83;;;28.10;41.60;;;;;;4905453;29;20198;-67
2021/06/05 11:45:53;;;;;;;2.20;2.10;;;28.40;42.00;;;;;;4897432;29;20303;-67
2021/06/05 11:48:49;;;;;;;3.33;1.63;;;29.00;40.70;;;;;;4910868;29;20989;-68
2021/06/05 11:51:27;;;;;;;2.50;1.60;;;29.90;39.60;;;;;;4910239;28;20214;-67
2021/06/05 11:53:56;;;;;;;2.47;1.90;;;30.60;38.40;;;;;;4970507;28;20227;-68
2021/06/05 11:56:26;;;;;;;2.38;1.45;;;31.10;37.90;;;;;;4969226;28;20199;-68
2021/06/05 11:58:53;;;;;;;2.55;1.60;;;31.60;37.20;;;;;;4969698;28;20299;-68
2021/06/05 12:01:26;;;;;;;3.92;1.90;;;31.90;36.50;;;;;;4969386;28;20204;-67
2021/06/05 12:04:01;;;;;;;3.42;2.10;;;32.00;36.40;;;;;;4966176;28;20433;-68
2021/06/05 12:06:37;;;;;;;1.70;1.60;;;32.10;35.30;;;;;;4970556;28;20198;-68
2021/06/05 12:09:11;;;;;;;2.55;1.83;;;32.00;35.40;;;;;;4970328;28;20244;-68
2021/06/05 12:11:43;;;;;;;2.35;1.60;;;31.80;35.10;;;;;;4969606;28;20254;-67
2021/06/05 12:14:17;;;;;;;2.75;1.80;;;31.60;34.90;;;;;;4970350;28;20224;-68
2021/06/05 12:16:50;;;;;;;3.90;1.90;;;31.40;35.40;;;;;;4968629;28;20208;-67
2021/06/05 12:19:17;;;;;;;2.22;2.08;;;31.50;35.80;;;;;;4970448;28;20287;-67
2021/06/05 12:21:44;;;;;;;2.08;1.88;;;31.20;35.90;;;;;;4969915;28;20199;-67
2021/06/05 12:24:17;;;;;;;1.88;1.60;;;31.10;36.20;;;;;;4969825;28;20207;-67
2021/06/05 12:26:53;;;;;;;2.20;1.88;;;31.10;35.90;;;;;;4969753;28;20291;-67
2021/06/05 12:29:24;;;;;;;1.95;1.50;;;31.00;36.00;;;;;;4968534;28;20431;-67
2021/06/05 12:31:52;;;;;;;3.33;1.98;;;30.70;36.50;;;;;;4970702;28;20348;-67
2021/06/05 12:34:32;;;;;;;6.30;2.60;;;30.40;37.10;;;;;;4965437;28;20296;-67
2021/06/05 12:37:01;;;;;;;8.82;2.83;;;30.00;37.40;;;;;;4973775;28;20271;-67
2021/06/05 12:39:44;;;;;;;5.65;2.05;;;29.70;37.50;;;;;;4973878;28;20251;-67
2021/06/05 12:42:18;;;;;;;5.20;2.22;;;29.20;37.90;;;;;;4974372;28;20678;-67
2021/06/05 12:44:46;;;;;;;6.57;1.98;;;28.70;38.20;;;;;;4969534;28;20196;-67
2021/06/05 12:47:18;;;;;;;2.38;1.95;;;28.40;38.40;;;;;;4973465;28;20686;-67
2021/06/05 12:49:45;;;;;;;4.10;1.90;;;28.10;38.50;;;;;;4974100;28;20228;-67
2021/06/05 12:52:17;;;;;;;2.42;1.80;;;27.80;38.70;;;;;;4974638;28;20749;-67
2021/06/05 12:54:47;;;;;;;1.85;1.73;;;27.50;39.40;;;;;;4973215;28;20225;-67
2021/06/05 12:57:34;;;;;;;1.88;1.77;;;27.20;40.00;;;;;;4973438;28;20196;-67
2021/06/05 13:00:16;;;;;;;3.75;1.70;;;26.80;40.40;;;;;;4972286;28;20303;-67
2021/06/05 13:02:42;;;;;;;2.75;1.88;;;26.60;41.10;;;;;;4971733;28;20215;-67
2021/06/05 13:05:12;;;;;;;1.92;1.83;;;26.30;41.50;;;;;;4973240;28;20319;-68